createdAt,value
2022-12-05T00:00:48.519Z,101525.35
2022-12-05T00:03:37.784Z,101519.41
2022-12-05T00:06:27.960Z,101513.03
2022-12-05T00:09:17.242Z,101511.36
2022-12-05T00:12:06.993Z,101509.94
2022-12-05T00:14:56.255Z,101510.80
2022-12-05T00:17:45.531Z,101509.69
2022-12-05T00:20:35.108Z,101515.77
2022-12-05T00:23:24.520Z,101518.83
2022-12-05T00:26:13.966Z,101520.09
2022-12-05T00:29:03.629Z,101524.39
2022-12-05T00:31:52.941Z,101524.58
2022-12-05T00:34:42.285Z,101519.86
2022-12-05T00:37:31.520Z,101517.96
2022-12-05T00:40:20.923Z,101518.30
2022-12-05T00:43:10.329Z,101520.29
2022-12-05T00:46:02.720Z,101520.17
2022-12-05T00:48:52.974Z,101523.04
2022-12-05T00:51:43.008Z,101529.73
2022-12-05T00:54:32.247Z,101525.39
2022-12-05T00:57:21.483Z,101528.41
2022-12-05T01:00:12.698Z,101529.34
2022-12-05T01:03:02.006Z,101525.63
2022-12-05T01:05:51.282Z,101520.84
2022-12-05T01:08:40.600Z,101516.11
2022-12-05T01:11:29.870Z,101516.02
2022-12-05T01:14:21.660Z,101518.13
2022-12-05T01:17:11.399Z,101520.30
2022-12-05T01:20:00.770Z,101519.23
2022-12-05T01:22:50.353Z,101516.69
2022-12-05T01:25:41.613Z,101514.57
2022-12-05T01:28:30.927Z,101506.11
2022-12-05T01:31:23.683Z,101500.11
2022-12-05T01:34:14.176Z,101490.73
2022-12-05T01:37:03.465Z,101486.48
2022-12-05T01:39:52.712Z,101482.05
2022-12-05T01:42:42.395Z,101473.39
2022-12-05T01:45:34.171Z,101479.43
2022-12-05T01:48:25.454Z,101483.15
2022-12-05T01:51:14.801Z,101490.82
2022-12-05T01:54:04.722Z,101487.49
2022-12-05T01:56:56.000Z,101488.92
2022-12-05T01:59:47.407Z,101491.02
2022-12-05T02:02:36.844Z,101486.13
2022-12-05T02:05:28.049Z,101484.00
2022-12-05T02:08:17.423Z,101492.70
2022-12-05T02:11:07.388Z,101492.56
2022-12-05T02:14:09.783Z,101493.07
2022-12-05T02:17:03.113Z,101486.86
2022-12-05T02:20:16.875Z,101482.52
2022-12-05T02:23:27.647Z,101479.52
2022-12-05T02:26:31.326Z,101476.49
2022-12-05T02:29:42.300Z,101476.62
2022-12-05T02:32:41.465Z,101476.09
2022-12-05T02:35:41.224Z,101477.19
2022-12-05T02:38:32.415Z,101483.87
2022-12-05T02:41:24.471Z,101482.96
2022-12-05T02:44:15.678Z,101481.70
2022-12-05T02:47:06.277Z,101481.90
2022-12-05T02:49:55.957Z,101471.08
2022-12-05T02:52:45.728Z,101472.01
2022-12-05T02:55:35.190Z,101463.70
2022-12-05T02:58:31.825Z,101460.38
2022-12-05T03:01:23.236Z,101462.48
2022-12-05T03:04:12.832Z,101461.11
2022-12-05T03:07:03.955Z,101463.48
2022-12-05T03:09:55.616Z,101470.05
2022-12-05T03:12:48.558Z,101465.30
2022-12-05T03:15:39.822Z,101465.86
2022-12-05T03:18:30.474Z,101458.09
2022-12-05T03:21:25.867Z,101454.88
2022-12-05T03:24:15.649Z,101456.49
2022-12-05T03:27:08.059Z,101452.04
2022-12-05T03:29:58.588Z,101449.27
2022-12-05T03:32:51.477Z,101451.57
2022-12-05T03:35:44.372Z,101450.21
2022-12-05T03:38:35.033Z,101451.80
2022-12-05T03:41:25.998Z,101454.29
2022-12-05T03:44:17.920Z,101452.89
2022-12-05T03:47:11.799Z,101446.35
2022-12-05T03:50:03.322Z,101442.80
2022-12-05T03:53:18.700Z,101436.83
2022-12-05T03:56:08.295Z,101439.83
2022-12-05T03:59:02.654Z,101439.13
2022-12-05T04:01:52.416Z,101443.38
2022-12-05T04:04:44.477Z,101449.39
2022-12-05T04:07:34.649Z,101450.45
2022-12-05T04:10:25.988Z,101450.63
2022-12-05T04:13:17.522Z,101451.91
2022-12-05T04:16:28.383Z,101460.23
2022-12-05T04:19:19.554Z,101462.57
2022-12-05T04:22:08.887Z,101466.65
2022-12-05T04:25:17.123Z,101476.76
2022-12-05T04:28:21.471Z,101484.55
2022-12-05T04:31:12.707Z,101490.96
2022-12-05T04:34:04.630Z,101490.25
2022-12-05T04:36:55.365Z,101489.36
2022-12-05T04:39:47.002Z,101487.58
2022-12-05T04:42:36.421Z,101485.79
2022-12-05T04:45:25.793Z,101485.81
2022-12-05T04:48:16.372Z,101483.52
2022-12-05T04:51:07.434Z,101482.48
2022-12-05T04:54:00.869Z,101471.95
2022-12-05T04:56:52.393Z,101478.20
2022-12-05T04:59:43.897Z,101476.04
2022-12-05T05:02:35.909Z,101475.73
2022-12-05T05:05:25.693Z,101472.35
2022-12-05T05:08:18.277Z,101473.83
2022-12-05T05:11:11.137Z,101468.43
2022-12-05T05:14:00.694Z,101463.45
2022-12-05T05:16:50.008Z,101458.08
2022-12-05T05:19:39.341Z,101449.48
2022-12-05T05:22:28.723Z,101453.59
2022-12-05T05:25:18.514Z,101447.40
2022-12-05T05:28:08.234Z,101447.70
2022-12-05T05:31:02.147Z,101458.66
2022-12-05T05:33:52.055Z,101460.31
2022-12-05T05:36:41.442Z,101455.80
2022-12-05T05:39:31.081Z,101451.48
2022-12-05T05:42:20.400Z,101450.68
2022-12-05T05:45:11.605Z,101444.98
2022-12-05T05:48:00.930Z,101447.86
2022-12-05T05:50:50.289Z,101452.19
2022-12-05T05:53:39.694Z,101448.96
2022-12-05T05:56:29.094Z,101454.98
2022-12-05T05:59:18.459Z,101459.59
2022-12-05T06:02:07.990Z,101457.06
2022-12-05T06:04:57.389Z,101456.20
2022-12-05T06:07:46.847Z,101451.38
2022-12-05T06:10:37.840Z,101457.80
2022-12-05T06:13:27.142Z,101461.34
2022-12-05T06:16:17.862Z,101461.31
2022-12-05T06:19:07.358Z,101471.56
2022-12-05T06:21:56.728Z,101460.77
2022-12-05T06:24:46.286Z,101459.09
2022-12-05T06:27:35.687Z,101457.30
2022-12-05T06:30:25.079Z,101460.12
2022-12-05T06:33:14.764Z,101457.77
2022-12-05T06:36:06.830Z,101461.48
2022-12-05T06:38:57.434Z,101460.27
2022-12-05T06:41:46.780Z,101457.86
2022-12-05T06:44:36.603Z,101450.88
2022-12-05T06:47:25.950Z,101449.67
2022-12-05T06:50:15.450Z,101452.33
2022-12-05T06:53:04.843Z,101455.99
2022-12-05T06:55:58.244Z,101456.53
2022-12-05T06:58:48.329Z,101458.34
2022-12-05T07:01:41.892Z,101454.80
2022-12-05T07:04:31.707Z,101449.95
2022-12-05T07:07:21.034Z,101446.36
2022-12-05T07:10:10.590Z,101444.79
2022-12-05T07:13:00.086Z,101444.95
2022-12-05T07:15:50.036Z,101439.48
2022-12-05T07:18:39.416Z,101435.99
2022-12-05T07:21:28.818Z,101430.52
2022-12-05T07:24:18.253Z,101433.90
2022-12-05T07:27:08.003Z,101432.30
2022-12-05T07:29:58.097Z,101431.78
2022-12-05T07:32:47.725Z,101430.91
2022-12-05T07:35:37.140Z,101426.83
2022-12-05T07:38:26.506Z,101422.55
2022-12-05T07:41:18.422Z,101424.86
2022-12-05T07:44:09.402Z,101428.98
2022-12-05T07:46:59.085Z,101425.45
2022-12-05T07:49:48.502Z,101425.99
2022-12-05T07:52:37.870Z,101428.09
2022-12-05T07:55:27.351Z,101426.10
2022-12-05T07:58:16.663Z,101424.14
2022-12-05T08:01:09.739Z,101424.08
2022-12-05T08:03:59.787Z,101425.98
2022-12-05T08:06:49.139Z,101426.69
2022-12-05T08:09:38.546Z,101435.30
2022-12-05T08:12:28.287Z,101441.30
2022-12-05T08:15:17.855Z,101439.45
2022-12-05T08:18:07.284Z,101438.60
2022-12-05T08:21:00.596Z,101436.46
2022-12-05T08:23:49.957Z,101439.26
2022-12-05T08:26:39.471Z,101431.09
2022-12-05T08:29:28.999Z,101429.06
2022-12-05T08:32:18.396Z,101425.88
2022-12-05T08:35:09.926Z,101428.67
2022-12-05T08:37:59.379Z,101425.23
2022-12-05T08:40:48.731Z,101428.38
2022-12-05T08:43:38.500Z,101425.82
2022-12-05T08:46:27.963Z,101423.77
2022-12-05T08:49:17.837Z,101421.40
2022-12-05T08:52:07.592Z,101418.48
2022-12-05T08:54:57.295Z,101424.04
2022-12-05T08:57:46.934Z,101422.88
2022-12-05T09:00:36.328Z,101428.06
2022-12-05T09:03:25.731Z,101427.99
2022-12-05T09:06:16.496Z,101425.61
2022-12-05T09:09:06.962Z,101424.13
2022-12-05T09:11:57.217Z,101423.66
2022-12-05T09:14:46.602Z,101420.38
2022-12-05T09:17:36.124Z,101421.86
2022-12-05T09:20:25.565Z,101420.23
2022-12-05T09:23:16.274Z,101421.54
2022-12-05T09:26:06.889Z,101419.55
2022-12-05T09:28:56.314Z,101424.84
2022-12-05T09:31:46.408Z,101421.55
2022-12-05T09:34:37.225Z,101413.34
2022-12-05T09:37:41.670Z,101404.05
2022-12-05T09:40:31.715Z,101402.76
2022-12-05T09:43:24.359Z,101403.71
2022-12-05T09:46:18.545Z,101410.01
2022-12-05T09:49:08.463Z,101406.30
2022-12-05T09:51:57.926Z,101406.13
2022-12-05T09:54:47.554Z,101402.18
2022-12-05T09:57:38.672Z,101387.52
2022-12-05T10:00:28.691Z,101378.61
2022-12-05T10:03:24.619Z,101385.52
2022-12-05T10:06:17.574Z,101381.77
2022-12-05T10:09:14.522Z,101378.88
2022-12-05T10:12:06.917Z,101395.13
2022-12-05T10:15:00.547Z,101401.48
2022-12-05T10:17:52.474Z,101389.41
2022-12-05T10:20:45.173Z,101389.94
2022-12-05T10:23:56.946Z,101380.84
2022-12-05T10:26:48.834Z,101377.81
2022-12-05T10:29:40.190Z,101373.33
2022-12-05T10:32:31.814Z,101370.30
2022-12-05T10:35:22.620Z,101361.60
2022-12-05T10:38:24.803Z,101359.94
2022-12-05T10:41:14.502Z,101356.19
2022-12-05T10:44:04.247Z,101355.84
2022-12-05T10:46:53.751Z,101353.83
2022-12-05T10:49:43.346Z,101351.67
2022-12-05T10:52:32.818Z,101346.16
2022-12-05T10:55:22.165Z,101347.11
2022-12-05T10:58:17.309Z,101345.52
2022-12-05T11:01:09.637Z,101342.08
2022-12-05T11:04:00.366Z,101337.35
2022-12-05T11:06:52.079Z,101338.19
2022-12-05T11:09:41.494Z,101337.78
2022-12-05T11:12:35.974Z,101339.05
2022-12-05T11:15:27.455Z,101332.30
2022-12-05T11:18:27.869Z,101333.16
2022-12-05T11:21:19.545Z,101328.58
2022-12-05T11:24:25.003Z,101318.08
2022-12-05T11:27:21.711Z,101320.00
2022-12-05T11:30:19.129Z,101316.42
2022-12-05T11:33:19.947Z,101323.66
2022-12-05T11:36:13.001Z,101324.67
2022-12-05T11:39:02.357Z,101317.45
2022-12-05T11:42:08.032Z,101313.19
2022-12-05T11:45:09.173Z,101308.00
2022-12-05T11:48:10.536Z,101309.88
2022-12-05T11:51:14.345Z,101302.84
2022-12-05T11:55:03.252Z,101308.05
2022-12-05T11:58:12.943Z,101302.98
2022-12-05T12:01:06.660Z,101293.42
2022-12-05T12:04:22.468Z,101294.67
2022-12-05T12:07:19.993Z,101285.02
2022-12-05T12:10:14.612Z,101282.05
2022-12-05T12:13:14.319Z,101285.38
2022-12-05T12:16:09.789Z,101277.56
2022-12-05T12:19:08.909Z,101268.02
2022-12-05T12:22:06.296Z,101264.79
2022-12-05T12:25:04.906Z,101260.36
2022-12-05T12:28:04.545Z,101252.80
2022-12-05T12:31:02.490Z,101257.19
2022-12-05T12:33:53.591Z,101256.32
2022-12-05T12:36:46.745Z,101250.30
2022-12-05T12:39:40.784Z,101239.30
2022-12-05T12:42:32.228Z,101239.40
2022-12-05T12:45:58.814Z,101236.77
2022-12-05T12:49:01.946Z,101245.02
2022-12-05T12:51:53.320Z,101234.27
2022-12-05T12:55:03.846Z,101231.12
2022-12-05T12:58:00.520Z,101223.58
2022-12-05T13:00:58.353Z,101221.63
2022-12-05T13:03:51.708Z,101219.13
2022-12-05T13:06:43.001Z,101218.83
2022-12-05T13:09:33.818Z,101217.84
2022-12-05T13:12:27.562Z,101217.14
2022-12-05T13:15:18.236Z,101217.21
2022-12-05T13:18:11.263Z,101219.80
2022-12-05T13:21:02.100Z,101227.41
2022-12-05T13:23:52.369Z,101226.21
2022-12-05T13:26:45.448Z,101225.73
2022-12-05T13:29:35.907Z,101227.73
2022-12-05T13:32:31.003Z,101228.80
2022-12-05T13:35:39.341Z,101230.60
2022-12-05T13:38:47.766Z,101227.23
2022-12-05T13:41:59.285Z,101222.92
2022-12-05T13:44:49.947Z,101222.73
2022-12-05T13:47:45.972Z,101222.55
2022-12-05T13:50:36.965Z,101219.54
2022-12-05T13:53:31.595Z,101217.40
2022-12-05T13:56:26.679Z,101221.15
2022-12-05T13:59:30.262Z,101227.85
2022-12-05T14:02:49.773Z,101216.91
2022-12-05T14:05:44.510Z,101213.85
2022-12-05T14:08:51.142Z,101212.67
2022-12-05T14:11:40.586Z,101210.22
2022-12-05T14:14:58.783Z,101211.26
2022-12-05T14:17:48.229Z,101209.13
2022-12-05T14:20:55.395Z,101204.84
2022-12-05T14:23:52.339Z,101204.11
2022-12-05T14:26:57.087Z,101197.19
2022-12-05T14:29:56.599Z,101193.91
2022-12-05T14:32:46.354Z,101192.31
2022-12-05T14:35:42.596Z,101190.94
2022-12-05T14:38:32.295Z,101197.13
2022-12-05T14:41:25.669Z,101188.28
2022-12-05T14:44:18.278Z,101191.91
2022-12-05T14:47:07.785Z,101198.62
2022-12-05T14:50:33.117Z,101182.90
2022-12-05T14:53:38.173Z,101177.45
2022-12-05T14:56:27.656Z,101177.25
2022-12-05T14:59:23.726Z,101171.90
2022-12-05T15:02:19.139Z,101174.42
2022-12-05T15:05:18.165Z,101168.11
2022-12-05T15:08:10.160Z,101168.34
2022-12-05T15:10:59.862Z,101172.65
2022-12-05T15:13:49.280Z,101176.23
2022-12-05T15:16:40.315Z,101172.27
2022-12-05T15:19:30.967Z,101175.02
2022-12-05T15:22:22.194Z,101171.20
2022-12-05T15:25:29.239Z,101168.71
2022-12-05T15:28:19.568Z,101163.19
2022-12-05T15:31:10.095Z,101159.11
2022-12-05T15:34:03.169Z,101157.67
2022-12-05T15:36:58.084Z,101152.72
2022-12-05T15:39:57.878Z,101152.72
2022-12-05T15:42:48.084Z,101153.59
2022-12-05T15:45:38.110Z,101156.84
2022-12-05T15:48:27.521Z,101160.07
2022-12-05T15:51:17.369Z,101158.48
2022-12-05T15:54:08.805Z,101154.89
2022-12-05T15:57:00.596Z,101150.63
2022-12-05T15:59:51.770Z,101153.45
2022-12-05T16:02:43.885Z,101151.73
2022-12-05T16:05:35.889Z,101152.80
2022-12-05T16:08:29.435Z,101149.44
2022-12-05T16:11:18.842Z,101152.61
2022-12-05T16:14:08.615Z,101148.91
2022-12-05T16:17:01.223Z,101147.34
2022-12-05T16:19:51.512Z,101147.53
2022-12-05T16:22:45.326Z,101148.59
2022-12-05T16:25:35.495Z,101148.06
2022-12-05T16:28:24.940Z,101148.23
2022-12-05T16:31:16.931Z,101141.35
2022-12-05T16:34:07.166Z,101138.30
2022-12-05T16:36:56.991Z,101137.44
2022-12-05T16:39:46.403Z,101143.45
2022-12-05T16:42:36.840Z,101141.73
2022-12-05T16:45:39.116Z,101141.16
2022-12-05T16:48:28.738Z,101140.95
2022-12-05T16:51:19.122Z,101145.98
2022-12-05T16:54:25.778Z,101147.70
2022-12-05T16:57:29.274Z,101142.63
2022-12-05T17:01:16.006Z,101141.33
2022-12-05T17:04:38.142Z,101140.66
2022-12-05T17:07:58.529Z,101134.80
2022-12-05T17:11:06.332Z,101132.94
2022-12-05T17:14:13.187Z,101124.59
2022-12-05T17:17:08.399Z,101127.05
2022-12-05T17:20:21.838Z,101127.97
2022-12-05T17:23:32.309Z,101127.45
2022-12-05T17:26:31.677Z,101131.04
2022-12-05T17:29:33.998Z,101133.95
2022-12-05T17:32:39.294Z,101128.06
2022-12-05T17:35:30.494Z,101127.78
2022-12-05T17:38:21.149Z,101126.00
2022-12-05T17:41:20.356Z,101121.87
2022-12-05T17:44:13.719Z,101121.67
2022-12-05T17:47:25.521Z,101123.70
2022-12-05T17:50:25.586Z,101123.56
2022-12-05T17:53:31.992Z,101120.84
2022-12-05T17:56:44.793Z,101113.14
2022-12-05T17:59:43.839Z,101116.67
2022-12-05T18:02:43.497Z,101113.26
2022-12-05T18:05:43.241Z,101108.60
2022-12-05T18:08:39.308Z,101110.23
2022-12-05T18:11:35.406Z,101110.46
2022-12-05T18:14:39.660Z,101103.59
2022-12-05T18:17:57.661Z,101103.42
2022-12-05T18:21:00.167Z,101102.02
2022-12-05T18:24:06.277Z,101096.54
2022-12-05T18:27:09.038Z,101089.06
2022-12-05T18:30:27.710Z,101086.93
2022-12-05T18:33:37.508Z,101088.36
2022-12-05T18:36:45.017Z,101084.21
2022-12-05T18:39:53.218Z,101084.14
2022-12-05T18:42:45.885Z,101090.05
2022-12-05T18:49:01.754Z,101087.13
2022-12-05T18:52:08.450Z,101091.29
2022-12-05T18:55:43.600Z,101082.38
2022-12-05T18:58:57.463Z,101083.10
2022-12-05T19:02:02.103Z,101079.67
2022-12-05T19:05:03.930Z,101078.73
2022-12-05T19:08:22.342Z,101077.67
2022-12-05T19:11:25.757Z,101078.21
2022-12-05T19:14:35.293Z,101078.57
2022-12-05T19:17:48.628Z,101077.47
2022-12-05T19:20:59.274Z,101079.02
2022-12-05T19:23:57.129Z,101079.42
2022-12-05T19:27:13.575Z,101074.80
2022-12-05T19:30:15.191Z,101076.69
2022-12-05T19:33:22.720Z,101077.38
2022-12-05T19:36:18.151Z,101076.54
2022-12-05T19:39:39.420Z,101079.58
2022-12-05T19:42:31.954Z,101079.84
2022-12-05T19:45:29.481Z,101082.36
2022-12-05T19:48:27.176Z,101081.64
2022-12-05T19:51:34.042Z,101075.94
2022-12-05T19:54:47.318Z,101073.52
2022-12-05T19:57:45.606Z,101076.45
2022-12-05T20:04:03.955Z,101068.16
2022-12-05T20:06:59.421Z,101065.53
2022-12-05T20:10:00.371Z,101053.98
2022-12-05T20:12:51.316Z,101055.88
2022-12-05T20:16:04.101Z,101055.64
2022-12-05T20:19:09.652Z,101057.40
2022-12-05T20:22:10.954Z,101053.07
2022-12-05T20:25:17.850Z,101061.08
2022-12-05T20:28:19.020Z,101060.38
2022-12-05T20:31:30.807Z,101062.87
2022-12-05T20:34:26.884Z,101063.31
2022-12-05T20:37:31.197Z,101065.16
2022-12-05T20:40:53.367Z,101057.10
2022-12-05T20:44:04.116Z,101056.27
2022-12-05T20:47:11.323Z,101053.30
2022-12-05T20:50:20.070Z,101055.02
2022-12-05T20:53:26.156Z,101051.10
2022-12-05T20:56:27.775Z,101047.02
2022-12-05T20:59:49.588Z,101042.59
2022-12-05T21:03:03.409Z,101038.18
2022-12-05T21:06:16.334Z,101040.23
2022-12-05T21:09:23.707Z,101037.64
2022-12-05T21:12:38.623Z,101030.95
2022-12-05T21:15:38.203Z,101027.52
2022-12-05T21:18:54.508Z,101022.86
2022-12-05T21:21:58.711Z,101019.84
2022-12-05T21:25:20.947Z,101014.10
2022-12-05T21:28:32.047Z,101014.50
2022-12-05T21:31:34.363Z,101012.86
2022-12-05T21:34:37.021Z,101010.73
2022-12-05T21:37:58.127Z,101012.46
2022-12-05T21:41:32.397Z,101013.83
2022-12-05T21:44:35.600Z,101011.23
2022-12-05T21:47:32.947Z,101010.81
2022-12-05T21:50:29.381Z,101013.65
2022-12-05T21:53:30.720Z,101011.55
2022-12-05T21:56:31.573Z,101011.89
2022-12-05T21:59:40.871Z,101011.33
2022-12-05T22:02:41.604Z,101009.90
2022-12-05T22:05:52.145Z,101015.77
2022-12-05T22:08:46.630Z,101011.71
2022-12-05T22:11:38.336Z,101013.39
2022-12-05T22:14:28.226Z,101014.92
2022-12-05T22:17:17.676Z,101015.52
2022-12-05T22:20:08.472Z,101010.34
2022-12-05T22:22:57.852Z,101012.92
2022-12-05T22:25:57.006Z,101005.84
2022-12-05T22:29:12.109Z,101001.92
2022-12-05T22:33:20.679Z,101005.05
2022-12-05T22:41:19.874Z,100990.63
2022-12-05T22:44:48.333Z,100986.78
2022-12-05T22:48:11.706Z,100985.06
2022-12-05T22:51:27.501Z,100990.35
2022-12-05T22:54:30.047Z,100989.72
2022-12-05T22:57:28.851Z,100985.48
2022-12-05T23:00:27.907Z,100987.61
2022-12-05T23:03:41.095Z,100987.14
2022-12-05T23:06:41.343Z,100981.68
2022-12-05T23:09:35.606Z,100974.27
2022-12-05T23:12:26.197Z,100970.91
2022-12-05T23:15:15.776Z,100969.19
2022-12-05T23:18:05.496Z,100972.38
2022-12-05T23:20:54.868Z,100969.83
2022-12-05T23:23:44.275Z,100967.27
2022-12-05T23:26:35.005Z,100967.01
2022-12-05T23:29:24.503Z,100963.69
2022-12-05T23:32:13.923Z,100965.89
2022-12-05T23:35:05.657Z,100959.25
2022-12-05T23:37:56.599Z,100960.41
2022-12-05T23:40:46.023Z,100952.30
2022-12-05T23:43:35.839Z,100947.58
2022-12-05T23:46:27.167Z,100940.04
2022-12-05T23:49:16.876Z,100931.58
2022-12-05T23:52:06.507Z,100919.41
2022-12-05T23:54:59.003Z,100916.61
2022-12-05T23:57:49.037Z,100913.93
